createdAt,value
2022-11-13T00:02:26.872Z,14.01
2022-11-13T00:04:54.224Z,14.01
2022-11-13T00:07:21.305Z,14.04
2022-11-13T00:09:48.357Z,14.03
2022-11-13T00:12:16.818Z,13.99
2022-11-13T00:14:44.458Z,13.96
2022-11-13T00:17:11.366Z,13.92
2022-11-13T00:19:38.361Z,13.93
2022-11-13T00:22:05.274Z,13.96
2022-11-13T00:24:32.241Z,14.02
2022-11-13T00:26:59.214Z,14.07
2022-11-13T00:29:27.523Z,14.13
2022-11-13T00:31:54.621Z,14.16
2022-11-13T00:37:08.498Z,14.08
2022-11-13T00:39:35.460Z,14.10
2022-11-13T00:42:02.483Z,14.12
2022-11-13T00:44:30.787Z,14.18
2022-11-13T00:46:57.751Z,14.23
2022-11-13T00:49:24.748Z,14.23
2022-11-13T00:51:51.700Z,14.22
2022-11-13T00:54:18.989Z,14.20
2022-11-13T00:56:45.944Z,14.17
2022-11-13T00:59:13.022Z,14.14
2022-11-13T01:01:41.371Z,14.08
2022-11-13T01:04:08.351Z,14.03
2022-11-13T01:06:35.332Z,14.00
2022-11-13T01:09:02.341Z,13.95
2022-11-13T01:11:31.235Z,13.93
2022-11-13T01:13:58.734Z,13.87
2022-11-13T01:16:27.651Z,13.80
2022-11-13T01:18:57.031Z,13.74
2022-11-13T01:21:27.345Z,13.68
2022-11-13T01:23:55.033Z,13.64
2022-11-13T01:26:25.895Z,13.58
2022-11-13T01:28:54.040Z,13.53
2022-11-13T01:31:24.572Z,13.46
2022-11-13T01:33:51.972Z,13.45
2022-11-13T01:36:26.007Z,13.46
2022-11-13T01:38:53.525Z,13.45
2022-11-13T01:41:24.819Z,13.41
2022-11-13T01:43:54.416Z,13.39
2022-11-13T01:46:26.736Z,13.40
2022-11-13T01:49:13.166Z,13.39
2022-11-13T01:51:49.107Z,13.38
2022-11-13T01:54:22.212Z,13.39
2022-11-13T01:56:51.168Z,13.41
2022-11-13T01:59:24.163Z,13.40
2022-11-13T02:01:51.348Z,13.40
2022-11-13T02:04:18.407Z,13.41
2022-11-13T02:06:51.811Z,13.41
2022-11-13T02:09:23.386Z,13.42
2022-11-13T02:11:52.151Z,13.41
2022-11-13T02:14:22.704Z,13.41
2022-11-13T02:16:56.209Z,13.41
2022-11-13T02:19:29.728Z,13.43
2022-11-13T02:22:10.986Z,13.39
2022-11-13T02:24:45.279Z,13.39
2022-11-13T02:27:23.084Z,13.37
2022-11-13T02:29:50.065Z,13.38
2022-11-13T02:32:17.096Z,13.39
2022-11-13T02:34:44.071Z,13.42
2022-11-13T02:37:11.495Z,13.45
2022-11-13T02:39:40.399Z,13.46
2022-11-13T02:42:07.331Z,13.48
2022-11-13T02:44:34.347Z,13.47
2022-11-13T02:47:01.302Z,13.46
2022-11-13T02:49:28.218Z,13.43
2022-11-13T02:51:55.167Z,13.40
2022-11-13T02:54:22.205Z,13.35
2022-11-13T02:56:50.524Z,13.28
2022-11-13T02:59:17.501Z,13.25
2022-11-13T03:01:44.489Z,13.22
2022-11-13T03:04:11.459Z,13.19
2022-11-13T03:06:38.479Z,13.16
2022-11-13T03:09:05.460Z,13.15
2022-11-13T03:11:32.446Z,13.15
2022-11-13T03:14:00.745Z,13.15
2022-11-13T03:16:28.480Z,13.14
2022-11-13T03:18:56.328Z,13.12
2022-11-13T03:21:24.221Z,13.10
2022-11-13T03:23:51.220Z,13.08
2022-11-13T03:26:18.326Z,13.10
2022-11-13T03:28:45.858Z,13.08
2022-11-13T03:31:14.227Z,13.08
2022-11-13T03:33:41.569Z,13.09
2022-11-13T03:36:09.086Z,13.11
2022-11-13T03:38:36.442Z,13.14
2022-11-13T03:41:03.954Z,13.15
2022-11-13T03:43:31.386Z,13.13
2022-11-13T03:45:58.375Z,13.11
2022-11-13T03:48:26.939Z,13.09
2022-11-13T03:50:55.846Z,13.09
2022-11-13T03:53:22.833Z,13.11
2022-11-13T03:55:49.857Z,13.13
2022-11-13T03:58:17.449Z,13.16
2022-11-13T04:00:45.942Z,13.14
2022-11-13T04:03:12.902Z,13.12
2022-11-13T04:05:43.024Z,13.11
2022-11-13T04:08:10.661Z,13.12
2022-11-13T04:10:37.641Z,13.10
2022-11-13T04:13:04.650Z,13.12
2022-11-13T04:15:31.627Z,13.15
2022-11-13T04:17:58.643Z,13.14
2022-11-13T04:20:27.763Z,13.16
2022-11-13T04:22:56.697Z,13.17
2022-11-13T04:25:23.874Z,13.17
2022-11-13T04:27:51.614Z,13.18
2022-11-13T04:30:19.145Z,13.20
2022-11-13T04:32:46.110Z,13.19
2022-11-13T04:35:13.096Z,13.18
2022-11-13T04:37:40.147Z,13.17
2022-11-13T04:40:10.942Z,13.15
2022-11-13T04:42:49.873Z,13.13
2022-11-13T04:45:18.330Z,13.08
2022-11-13T04:47:45.340Z,13.05
2022-11-13T04:50:14.146Z,13.03
2022-11-13T04:52:41.245Z,13.04
2022-11-13T04:55:11.532Z,13.02
2022-11-13T04:57:39.336Z,12.97
2022-11-13T05:00:09.364Z,12.92
2022-11-13T05:02:36.639Z,12.86
2022-11-13T05:05:05.506Z,12.81
2022-11-13T05:07:32.658Z,12.77
2022-11-13T05:09:59.641Z,12.74
2022-11-13T05:12:27.917Z,12.73
2022-11-13T05:14:54.860Z,12.72
2022-11-13T05:17:23.118Z,12.70
2022-11-13T05:19:50.049Z,12.67
2022-11-13T05:22:16.976Z,12.62
2022-11-13T05:24:43.897Z,12.59
2022-11-13T05:27:16.871Z,12.53
2022-11-13T05:29:45.681Z,12.49
2022-11-13T05:32:12.717Z,12.44
2022-11-13T05:34:39.688Z,12.39
2022-11-13T05:37:06.643Z,12.36
2022-11-13T05:39:33.560Z,12.36
2022-11-13T05:42:00.482Z,12.36
2022-11-13T05:44:27.397Z,12.38
2022-11-13T05:46:55.688Z,12.40
2022-11-13T05:49:22.612Z,12.41
2022-11-13T05:51:49.567Z,12.43
2022-11-13T05:54:16.573Z,12.43
2022-11-13T05:56:43.562Z,12.44
2022-11-13T05:59:10.623Z,12.46
2022-11-13T06:01:40.482Z,12.50
2022-11-13T06:04:10.663Z,12.50
2022-11-13T06:06:37.698Z,12.48
2022-11-13T06:09:06.649Z,12.46
2022-11-13T06:11:34.034Z,12.46
2022-11-13T06:14:01.758Z,12.46
2022-11-13T06:16:33.918Z,12.46
2022-11-13T06:19:03.677Z,12.44
2022-11-13T06:21:35.644Z,12.36
2022-11-13T06:24:04.050Z,12.29
2022-11-13T06:26:33.861Z,12.23
2022-11-13T06:29:03.615Z,12.16
2022-11-13T06:31:34.761Z,12.10
2022-11-13T06:34:02.010Z,12.07
2022-11-13T06:36:33.520Z,12.02
2022-11-13T06:39:01.042Z,12.00
2022-11-13T06:41:31.281Z,11.98
2022-11-13T06:44:02.787Z,11.96
2022-11-13T06:46:31.419Z,11.93
2022-11-13T06:48:59.130Z,11.90
2022-11-13T06:51:28.937Z,11.88
2022-11-13T06:53:58.314Z,11.85
2022-11-13T06:56:26.224Z,11.83
2022-11-13T06:58:55.016Z,11.81
2022-11-13T07:01:25.406Z,11.82
2022-11-13T07:03:53.063Z,11.83
2022-11-13T07:06:24.085Z,11.83
2022-11-13T07:08:52.379Z,11.83
2022-11-13T07:11:23.698Z,11.84
2022-11-13T07:13:51.101Z,11.85
2022-11-13T07:16:18.693Z,11.87
2022-11-13T07:18:50.338Z,11.89
2022-11-13T07:21:17.443Z,11.92
2022-11-13T07:23:44.497Z,11.94
2022-11-13T07:26:11.686Z,11.97
2022-11-13T07:28:40.218Z,11.99
2022-11-13T07:31:09.336Z,11.95
2022-11-13T07:33:36.362Z,11.91
2022-11-13T07:36:03.918Z,11.92
2022-11-13T07:38:31.987Z,11.96
2022-11-13T07:40:59.858Z,12.05
2022-11-13T07:43:27.498Z,12.17
2022-11-13T07:45:58.493Z,12.29
2022-11-13T07:48:27.874Z,12.43
2022-11-13T07:50:59.327Z,12.55
2022-11-13T07:53:26.275Z,12.64
2022-11-13T07:55:53.321Z,12.74
2022-11-13T07:58:20.274Z,12.82
2022-11-13T08:00:47.412Z,12.81
2022-11-13T08:03:18.644Z,12.75
2022-11-13T08:05:45.609Z,12.65
2022-11-13T08:08:14.567Z,12.53
2022-11-13T08:10:42.025Z,12.44
2022-11-13T08:13:10.908Z,12.28
2022-11-13T08:15:38.689Z,12.20
2022-11-13T08:18:06.588Z,12.14
2022-11-13T08:20:34.918Z,12.15
2022-11-13T08:23:04.218Z,12.18
2022-11-13T08:25:33.278Z,12.26
2022-11-13T08:28:00.717Z,12.35
2022-11-13T08:30:29.000Z,12.49
2022-11-13T08:32:56.338Z,12.61
2022-11-13T08:35:29.073Z,12.75
2022-11-13T08:38:02.196Z,12.84
2022-11-13T08:40:29.804Z,12.95
2022-11-13T08:42:59.869Z,13.04
2022-11-13T08:45:27.337Z,13.11
2022-11-13T08:47:54.482Z,13.18
2022-11-13T08:50:21.516Z,13.24
2022-11-13T08:52:53.276Z,13.29
2022-11-13T08:55:22.222Z,13.27
2022-11-13T08:57:49.516Z,13.31
2022-11-13T09:00:17.964Z,13.37
2022-11-13T09:02:45.205Z,13.42
2022-11-13T09:05:12.288Z,13.46
2022-11-13T09:07:39.259Z,13.43
2022-11-13T09:10:07.929Z,13.41
2022-11-13T09:12:36.224Z,13.46
2022-11-13T09:15:03.416Z,13.51
2022-11-13T09:17:30.701Z,13.61
2022-11-13T09:20:03.529Z,13.69
2022-11-13T09:22:31.069Z,14.01
2022-11-13T09:24:58.001Z,14.29
2022-11-13T09:27:24.944Z,14.53
2022-11-13T09:29:55.684Z,14.79
2022-11-13T09:32:22.951Z,14.91
2022-11-13T09:34:49.881Z,14.90
2022-11-13T09:37:17.023Z,14.93
2022-11-13T09:39:43.938Z,14.96
2022-11-13T09:42:18.869Z,15.08
2022-11-13T09:44:53.596Z,15.32
2022-11-13T09:47:27.595Z,15.48
2022-11-13T09:50:02.552Z,15.59
2022-11-13T09:52:36.859Z,15.70
2022-11-13T09:55:05.349Z,15.82
2022-11-13T09:57:42.739Z,16.02
2022-11-13T10:00:15.247Z,16.33
2022-11-13T10:02:58.268Z,16.72
2022-11-13T10:05:43.040Z,16.99
2022-11-13T10:08:17.971Z,17.08
2022-11-13T10:10:55.411Z,17.09
2022-11-13T10:13:38.109Z,17.06
2022-11-13T10:16:20.838Z,16.97
2022-11-13T10:18:50.827Z,16.91
2022-11-13T10:21:32.151Z,16.81
2022-11-13T10:24:14.388Z,16.77
2022-11-13T10:26:41.588Z,16.69
2022-11-13T10:29:13.145Z,16.62
2022-11-13T10:31:46.969Z,16.58
2022-11-13T10:34:17.834Z,16.57
2022-11-13T10:37:03.059Z,16.53
2022-11-13T10:39:30.042Z,16.54
2022-11-13T10:41:57.027Z,16.52
2022-11-13T10:44:32.426Z,16.51
2022-11-13T10:47:13.573Z,16.49
2022-11-13T10:49:41.939Z,16.52
2022-11-13T10:52:19.494Z,16.55
2022-11-13T10:54:47.333Z,16.60
2022-11-13T10:57:33.120Z,16.62
2022-11-13T11:00:00.914Z,16.63
2022-11-13T11:02:29.039Z,16.63
2022-11-13T11:05:05.970Z,16.62
2022-11-13T11:07:41.383Z,16.63
2022-11-13T11:10:23.006Z,16.63
2022-11-13T11:12:55.197Z,16.61
2022-11-13T11:15:28.287Z,16.60
2022-11-13T11:18:02.374Z,16.59
2022-11-13T11:20:44.784Z,16.58
2022-11-13T11:23:24.461Z,16.63
2022-11-13T11:25:58.339Z,16.68
2022-11-13T11:28:35.809Z,16.73
2022-11-13T11:31:12.980Z,16.82
2022-11-13T11:33:52.663Z,16.89
2022-11-13T11:36:32.253Z,16.94
2022-11-13T11:39:20.401Z,16.98
2022-11-13T11:41:58.458Z,17.05
2022-11-13T11:44:33.401Z,17.11
2022-11-13T11:47:00.403Z,17.18
2022-11-13T11:49:27.520Z,17.29
2022-11-13T11:52:11.817Z,17.37
2022-11-13T11:54:43.679Z,17.43
2022-11-13T11:57:39.504Z,17.41
2022-11-13T12:00:12.389Z,17.44
2022-11-13T12:03:24.399Z,17.39
2022-11-13T12:06:11.697Z,17.41
2022-11-13T12:08:52.849Z,17.40
2022-11-13T12:11:29.668Z,17.40
2022-11-13T12:14:09.372Z,17.42
2022-11-13T12:16:49.871Z,17.42
2022-11-13T12:19:31.492Z,17.45
2022-11-13T12:22:12.484Z,17.40
2022-11-13T12:25:03.584Z,17.38
2022-11-13T12:27:38.359Z,17.36
2022-11-13T12:30:16.321Z,17.37
2022-11-13T12:33:06.662Z,17.34
2022-11-13T12:35:34.765Z,17.38
2022-11-13T12:38:14.075Z,17.37
2022-11-13T12:40:55.197Z,17.38
2022-11-13T12:43:51.562Z,17.33
2022-11-13T12:46:19.196Z,17.35
2022-11-13T12:48:47.927Z,17.35
2022-11-13T12:51:17.445Z,17.34
2022-11-13T12:53:48.400Z,17.45
2022-11-13T12:56:32.133Z,17.51
2022-11-13T12:59:33.441Z,17.58
2022-11-13T13:02:04.614Z,17.54
2022-11-13T13:05:01.701Z,17.45
2022-11-13T13:08:04.592Z,17.39
2022-11-13T13:10:49.506Z,17.37
2022-11-13T13:13:28.203Z,17.33
2022-11-13T13:15:58.391Z,17.33
2022-11-13T13:18:30.333Z,17.32
2022-11-13T13:21:09.820Z,17.29
2022-11-13T13:23:39.630Z,17.25
2022-11-13T13:26:15.919Z,17.20
2022-11-13T13:28:50.335Z,17.17
2022-11-13T13:31:37.098Z,17.10
2022-11-13T13:34:31.098Z,17.05
2022-11-13T13:37:18.436Z,17.04
2022-11-13T13:40:02.600Z,16.98
2022-11-13T13:42:53.090Z,16.93
2022-11-13T13:45:36.976Z,16.85
2022-11-13T13:48:11.273Z,16.80
2022-11-13T13:50:45.051Z,16.77
2022-11-13T13:53:18.260Z,16.73
2022-11-13T13:55:50.593Z,16.68
2022-11-13T13:58:24.940Z,16.65
2022-11-13T14:01:17.788Z,16.55
2022-11-13T14:03:45.704Z,16.50
2022-11-13T14:06:21.292Z,16.42
2022-11-13T14:08:48.485Z,16.37
2022-11-13T14:11:19.132Z,16.28
2022-11-13T14:13:46.195Z,16.24
2022-11-13T14:16:14.557Z,16.17
2022-11-13T14:18:42.219Z,16.05
2022-11-13T14:21:16.502Z,15.99
2022-11-13T14:23:48.092Z,15.95
2022-11-13T14:26:15.526Z,15.90
2022-11-13T14:28:53.682Z,15.85
2022-11-13T14:31:29.742Z,15.83
2022-11-13T14:34:00.925Z,15.81
2022-11-13T14:36:32.027Z,15.79
2022-11-13T14:38:59.802Z,15.76
2022-11-13T14:41:34.221Z,15.75
2022-11-13T14:44:02.109Z,15.72
2022-11-13T14:46:35.953Z,15.67
2022-11-13T14:49:03.407Z,15.64
2022-11-13T14:51:34.041Z,15.59
2022-11-13T14:54:07.674Z,15.50
2022-11-13T14:56:38.938Z,15.37
2022-11-13T14:59:16.982Z,15.22
2022-11-13T15:01:56.490Z,15.07
2022-11-13T15:04:24.914Z,14.99
2022-11-13T15:06:55.633Z,14.90
2022-11-13T15:09:24.543Z,14.84
2022-11-13T15:11:51.965Z,14.77
2022-11-13T15:14:21.202Z,14.71
2022-11-13T15:16:52.208Z,14.66
2022-11-13T15:19:30.785Z,14.62
2022-11-13T15:22:26.682Z,14.54
2022-11-13T15:24:44.965Z,14.43
2022-11-13T15:27:16.174Z,14.34
2022-11-13T15:29:44.478Z,14.24
2022-11-13T15:32:14.381Z,14.17
2022-11-13T15:34:43.220Z,14.20
2022-11-13T15:37:13.052Z,14.21
2022-11-13T15:39:40.521Z,14.18
2022-11-13T15:42:14.750Z,14.15
2022-11-13T15:44:41.749Z,14.15
2022-11-13T15:47:28.147Z,14.11
2022-11-13T15:50:12.746Z,14.09
2022-11-13T15:52:44.381Z,13.97
2022-11-13T15:55:27.375Z,13.81
2022-11-13T15:57:55.521Z,13.78
2022-11-13T16:00:25.397Z,13.75
2022-11-13T16:02:55.148Z,13.72
2022-11-13T16:05:25.909Z,13.69
2022-11-13T16:07:53.947Z,13.72
2022-11-13T16:10:24.722Z,13.73
2022-11-13T16:12:52.451Z,13.66
2022-11-13T16:15:19.858Z,13.60
2022-11-13T16:17:50.536Z,13.55
2022-11-13T16:20:18.789Z,13.56
2022-11-13T16:22:47.294Z,13.41
2022-11-13T16:25:17.337Z,13.41
2022-11-13T16:27:45.562Z,13.44
2022-11-13T16:30:19.912Z,13.46
2022-11-13T16:32:47.428Z,13.44
2022-11-13T16:35:16.090Z,13.31
2022-11-13T16:37:43.184Z,13.26
2022-11-13T16:40:21.438Z,13.27
2022-11-13T16:42:48.676Z,13.35
2022-11-13T16:45:17.357Z,13.40
2022-11-13T16:47:45.723Z,13.29
2022-11-13T16:50:16.622Z,13.10
2022-11-13T16:52:43.605Z,13.02
2022-11-13T16:55:10.598Z,13.05
2022-11-13T16:57:39.840Z,13.07
2022-11-13T17:00:12.010Z,13.09
2022-11-13T17:02:39.157Z,13.13
2022-11-13T17:05:06.853Z,13.15
2022-11-13T17:07:33.916Z,13.18
2022-11-13T17:10:28.873Z,13.27
2022-11-13T17:12:54.084Z,13.36
2022-11-13T17:15:21.642Z,13.42
2022-11-13T17:17:49.006Z,13.45
2022-11-13T17:20:19.040Z,13.43
2022-11-13T17:22:48.452Z,13.41
2022-11-13T17:25:17.127Z,13.46
2022-11-13T17:27:44.387Z,13.46
2022-11-13T17:30:14.325Z,13.51
2022-11-13T17:32:41.359Z,13.61
2022-11-13T17:35:12.781Z,13.64
2022-11-13T17:37:40.076Z,13.65
2022-11-13T17:40:09.347Z,13.68
2022-11-13T17:42:36.339Z,13.71
2022-11-13T17:45:03.816Z,13.67
2022-11-13T17:47:33.821Z,13.63
2022-11-13T17:50:06.678Z,13.63
2022-11-13T17:52:34.589Z,13.64
2022-11-13T17:55:05.727Z,13.69
2022-11-13T17:57:33.260Z,13.74
2022-11-13T18:00:00.222Z,13.74
2022-11-13T18:02:27.270Z,13.77
2022-11-13T18:04:58.157Z,13.66
2022-11-13T18:07:26.390Z,13.68
2022-11-13T18:09:53.395Z,13.70
2022-11-13T18:12:20.325Z,13.59
2022-11-13T18:14:52.190Z,13.57
2022-11-13T18:17:19.324Z,13.52
2022-11-13T18:19:46.669Z,13.41
2022-11-13T18:22:15.305Z,13.41
2022-11-13T18:24:42.678Z,13.40
2022-11-13T18:27:10.525Z,13.41
2022-11-13T18:29:37.503Z,13.47
2022-11-13T18:32:04.713Z,13.56
2022-11-13T18:34:32.400Z,13.63
2022-11-13T18:36:59.499Z,13.67
2022-11-13T18:39:27.840Z,13.70
2022-11-13T18:41:58.999Z,13.70
2022-11-13T18:44:26.219Z,13.68
2022-11-13T18:46:53.285Z,13.72
2022-11-13T18:49:20.337Z,13.74
2022-11-13T18:51:47.287Z,13.78
2022-11-13T18:54:14.815Z,13.81
2022-11-13T18:56:43.109Z,13.82
2022-11-13T18:59:11.027Z,13.81
2022-11-13T19:01:39.801Z,13.77
2022-11-13T19:04:22.766Z,13.74
2022-11-13T19:06:51.041Z,13.74
2022-11-13T19:09:19.144Z,13.73
2022-11-13T19:11:47.748Z,13.79
2022-11-13T19:14:17.587Z,13.80
2022-11-13T19:16:45.024Z,13.84
2022-11-13T19:19:18.149Z,13.86
2022-11-13T19:21:46.247Z,13.90
2022-11-13T19:24:14.916Z,13.95
2022-11-13T19:26:43.211Z,14.00
2022-11-13T19:29:11.933Z,14.03
2022-11-13T19:31:38.877Z,13.92
2022-11-13T19:34:08.186Z,13.94
2022-11-13T19:36:36.635Z,13.90
2022-11-13T19:39:04.354Z,13.86
2022-11-13T19:41:31.402Z,13.86
2022-11-13T19:44:00.122Z,13.91
2022-11-13T19:46:31.713Z,13.94
2022-11-13T19:48:58.719Z,13.99
2022-11-13T19:51:26.601Z,14.03
2022-11-13T19:53:55.840Z,14.06
2022-11-13T19:56:24.887Z,14.08
2022-11-13T19:58:52.786Z,14.08
2022-11-13T20:01:23.154Z,14.09
2022-11-13T20:03:56.408Z,14.10
2022-11-13T20:06:24.338Z,14.11
2022-11-13T20:08:51.606Z,14.13
2022-11-13T20:11:18.824Z,14.05
2022-11-13T20:13:46.243Z,14.06
2022-11-13T20:16:15.727Z,14.12
2022-11-13T20:18:44.246Z,14.12
2022-11-13T20:21:12.886Z,13.96
2022-11-13T20:23:40.352Z,13.88
2022-11-13T20:26:13.448Z,13.85
2022-11-13T20:28:40.641Z,13.82
2022-11-13T20:31:16.174Z,13.86
2022-11-13T20:33:43.731Z,13.81
2022-11-13T20:36:13.397Z,13.84
2022-11-13T20:38:40.639Z,13.91
2022-11-13T20:41:10.815Z,13.97
2022-11-13T20:43:37.994Z,14.00
2022-11-13T20:46:07.814Z,13.93
2022-11-13T20:48:35.140Z,13.79
2022-11-13T20:51:07.422Z,13.80
2022-11-13T20:53:36.087Z,13.89
2022-11-13T20:56:03.733Z,13.89
2022-11-13T20:58:31.622Z,13.95
2022-11-13T21:01:02.851Z,14.01
2022-11-13T21:03:29.878Z,14.05
2022-11-13T21:05:56.859Z,14.07
2022-11-13T21:08:24.231Z,14.08
2022-11-13T21:10:52.642Z,14.10
2022-11-13T21:13:19.718Z,14.14
2022-11-13T21:15:46.702Z,14.20
2022-11-13T21:18:13.668Z,14.24
2022-11-13T21:20:40.705Z,14.30
2022-11-13T21:23:07.654Z,14.28
2022-11-13T21:25:34.704Z,14.31
2022-11-13T21:28:03.875Z,14.34
2022-11-13T21:30:30.851Z,14.38
2022-11-13T21:32:59.146Z,14.42
2022-11-13T21:35:27.185Z,14.46
2022-11-13T21:37:54.629Z,14.47
2022-11-13T21:40:22.638Z,14.50
2022-11-13T21:42:49.539Z,14.50
2022-11-13T21:45:17.858Z,14.50
2022-11-13T21:47:44.807Z,14.52
2022-11-13T21:50:12.170Z,14.58
2022-11-13T21:52:39.137Z,14.60
2022-11-13T21:55:07.678Z,14.65
2022-11-13T21:57:34.633Z,14.70
2022-11-13T22:00:01.722Z,14.74
2022-11-13T22:02:30.176Z,14.75
2022-11-13T22:04:57.197Z,14.77
2022-11-13T22:07:24.182Z,14.76
2022-11-13T22:09:51.142Z,14.78
2022-11-13T22:12:18.125Z,14.79
2022-11-13T22:14:45.121Z,14.82
2022-11-13T22:17:12.068Z,14.83
2022-11-13T22:19:40.414Z,14.81
2022-11-13T22:22:07.341Z,14.78
2022-11-13T22:24:34.295Z,14.75
2022-11-13T22:27:01.250Z,14.74
2022-11-13T22:29:28.171Z,14.73
2022-11-13T22:31:55.088Z,14.75
2022-11-13T22:34:21.999Z,14.76
2022-11-13T22:36:50.337Z,14.76
2022-11-13T22:39:17.317Z,14.72
2022-11-13T22:41:44.221Z,14.71
2022-11-13T22:44:14.222Z,14.71
2022-11-13T22:46:41.308Z,14.68
2022-11-13T22:49:11.297Z,14.61
2022-11-13T22:51:41.478Z,14.52
2022-11-13T22:54:12.225Z,14.45
2022-11-13T22:56:40.999Z,14.41
2022-11-13T22:59:11.312Z,14.35
2022-11-13T23:01:40.857Z,14.32
2022-11-13T23:04:12.783Z,14.29
2022-11-13T23:06:39.821Z,14.22
2022-11-13T23:09:06.897Z,14.19
2022-11-13T23:11:40.051Z,14.15
2022-11-13T23:14:12.066Z,14.11
2022-11-13T23:16:39.075Z,14.05
2022-11-13T23:19:06.015Z,13.99
2022-11-13T23:21:33.366Z,13.94
2022-11-13T23:24:00.540Z,13.87
2022-11-13T23:26:28.406Z,13.83
2022-11-13T23:28:57.512Z,13.79
2022-11-13T23:31:24.869Z,13.80
2022-11-13T23:33:51.885Z,13.77
2022-11-13T23:36:18.933Z,13.79
2022-11-13T23:38:46.301Z,13.78
2022-11-13T23:41:13.497Z,13.79
2022-11-13T23:44:07.776Z,13.80
2022-11-13T23:46:29.037Z,13.82
2022-11-13T23:48:56.354Z,13.85
2022-11-13T23:51:23.270Z,13.86
2022-11-13T23:53:50.187Z,13.86
2022-11-13T23:56:17.089Z,13.87
2022-11-13T23:58:44.133Z,13.89
